Time;durP1;ratioP1;P1;durP2;ratioP2;P2;SDS_P1;SDS_P2;PMS_P1;PMS_P2;Temp;Humidity;BMP_temperature;BMP_pressure;BME280_temperature;BME280_humidity;BME280_pressure;Samples;Min_cycle;Max_cycle;Signal;HPM_P1;HPM_P2
2023/08/18 00:02:26;;;;;;;0.22;0.20;;;;;;;24.15;100.00;101734.50;10443003;28;20061;-79
2023/08/18 00:07:28;;;;;;;0.10;0.05;;;;;;;23.52;100.00;101738.97;10442870;28;20487;-80
2023/08/18 00:12:31;;;;;;;0.00;0.00;;;;;;;25.03;100.00;101743.31;10442798;28;20041;-80
2023/08/18 00:17:33;;;;;;;0.45;0.35;;;;;;;24.54;100.00;101724.09;10441429;28;20068;-80
2023/08/18 00:22:35;;;;;;;0.70;0.20;;;;;;;24.54;100.00;101713.56;10442112;28;20053;-80
2023/08/18 00:27:37;;;;;;;0.20;0.13;;;;;;;24.85;100.00;101724.38;10459967;28;20074;-80
2023/08/18 00:32:39;;;;;;;0.63;0.28;;;;;;;25.20;100.00;101719.25;10441859;28;20056;-80
2023/08/18 00:37:42;;;;;;;0.05;0.05;;;;;;;24.86;100.00;101728.75;10458356;28;20103;-80
2023/08/18 00:42:44;;;;;;;1.10;0.22;;;;;;;24.89;100.00;101735.72;10474954;28;20103;-80
2023/08/18 00:47:46;;;;;;;0.40;0.35;;;;;;;25.03;100.00;101736.31;10441310;28;20041;-80
2023/08/18 00:52:56;;;;;;;0.00;0.00;;;;;;;24.97;100.00;101744.34;10459316;28;20056;-80
2023/08/18 00:58:01;;;;;;;0.15;0.15;;;;;;;24.27;100.00;101726.38;10440783;28;20041;-80
2023/08/18 01:03:04;;;;;;;0.35;0.20;;;;;;;25.20;100.00;101740.34;10440762;28;20136;-80
2023/08/18 01:08:06;;;;;;;0.25;0.20;;;;;;;24.20;100.00;101736.13;10440708;28;20051;-81
2023/08/18 01:13:26;;;;;;;0.10;0.10;;;;;;;25.19;100.00;101741.25;10440853;28;20045;-80
2023/08/18 01:18:29;;;;;;;0.65;0.35;;;;;;;24.97;100.00;101728.53;10458176;28;20037;-80
2023/08/18 01:23:38;;;;;;;0.38;0.30;;;;;;;24.76;100.00;101727.22;10458130;28;20059;-80
2023/08/18 01:28:41;;;;;;;0.20;0.10;;;;;;;24.76;100.00;101723.72;10439577;28;20137;-80
2023/08/18 01:33:53;;;;;;;0.65;0.20;;;;;;;25.57;100.00;101718.44;10423252;28;20053;-80
2023/08/18 01:38:56;;;;;;;0.10;0.10;;;;;;;24.99;100.00;101705.63;10440010;28;20503;-80
2023/08/18 01:43:59;;;;;;;0.00;0.00;;;;;;;24.51;100.00;101711.00;10439484;28;20049;-80
2023/08/18 01:49:01;;;;;;;0.00;0.00;;;;;;;24.30;100.00;101694.72;10439054;28;20041;-80
2023/08/18 01:54:04;;;;;;;0.10;0.10;;;;;;;24.39;100.00;101683.97;10439453;28;20041;-80
2023/08/18 01:59:06;;;;;;;0.10;0.10;;;;;;;25.00;100.00;101686.28;10456693;28;20068;-80
2023/08/18 02:04:08;;;;;;;0.20;0.13;;;;;;;25.13;100.00;101684.25;10422520;28;20045;-80
2023/08/18 02:09:10;;;;;;;0.10;0.10;;;;;;;24.52;100.00;101683.75;10438538;28;20559;-80
2023/08/18 02:14:13;;;;;;;0.50;0.32;;;;;;;25.57;100.00;101670.06;10438428;28;20053;-80
2023/08/18 02:19:18;;;;;;;0.25;0.25;;;;;;;24.23;100.00;101674.66;10471689;28;20047;-80
2023/08/18 02:24:20;;;;;;;0.00;0.00;;;;;;;24.86;100.00;101670.78;10456221;28;20406;-80
2023/08/18 02:29:21;;;;;;;0.68;0.57;;;;;;;24.48;100.00;101666.25;10438193;28;20041;-80
2023/08/18 02:34:23;;;;;;;1.00;0.52;;;;;;;25.24;100.00;101664.69;10438209;28;20148;-80
2023/08/18 02:39:27;;;;;;;0.22;0.22;;;;;;;25.18;100.00;101657.75;10423841;28;20637;-80
2023/08/18 02:44:29;;;;;;;0.45;0.43;;;;;;;24.51;100.00;101660.94;10446548;28;20131;-81
2023/08/18 02:49:31;;;;;;;1.15;0.52;;;;;;;25.07;100.00;101665.94;10463790;28;20044;-80
2023/08/18 02:54:32;;;;;;;0.52;0.25;;;;;;;24.62;100.00;101669.47;10446194;28;20053;-80
2023/08/18 02:59:34;;;;;;;0.55;0.40;;;;;;;25.25;100.00;101659.34;10445580;28;20049;-81
2023/08/18 03:04:37;;;;;;;0.00;0.00;;;;;;;25.07;100.00;101658.00;10445413;28;20411;-81
2023/08/18 03:09:39;;;;;;;0.93;0.65;;;;;;;24.36;100.00;101663.00;10445139;28;20049;-80
2023/08/18 03:14:40;;;;;;;0.17;0.15;;;;;;;25.37;100.00;101652.03;10463017;28;20484;-80
2023/08/18 03:19:42;;;;;;;0.28;0.10;;;;;;;25.63;100.00;101641.75;10463159;28;20076;-80
2023/08/18 03:24:43;;;;;;;0.20;0.20;;;;;;;25.08;100.00;101650.97;10477871;28;20055;-80
2023/08/18 03:29:45;;;;;;;2.25;0.68;;;;;;;25.00;100.00;101654.66;10462323;28;20115;-80
2023/08/18 03:34:47;;;;;;;0.65;0.30;;;;;;;24.45;100.00;101667.19;10443966;28;20395;-80
2023/08/18 03:39:52;;;;;;;0.30;0.30;;;;;;;23.68;100.00;101652.81;10443793;28;20052;-80
2023/08/18 03:44:54;;;;;;;1.75;0.70;;;;;;;25.03;100.00;101657.22;10444442;28;20041;-80
2023/08/18 03:49:56;;;;;;;0.65;0.57;;;;;;;25.92;100.00;101661.22;10443873;28;20052;-80
2023/08/18 03:54:58;;;;;;;1.40;0.65;;;;;;;24.38;100.00;101671.75;10426844;28;20107;-80
2023/08/18 04:00:00;;;;;;;0.20;0.20;;;;;;;24.32;100.00;101660.44;10443281;28;20135;-80
2023/08/18 04:05:03;;;;;;;1.73;0.55;;;;;;;25.51;100.00;101657.88;10443190;28;20045;-80
2023/08/18 04:10:05;;;;;;;0.00;0.00;;;;;;;25.45;100.00;101660.66;10476111;28;20061;-80
2023/08/18 04:15:07;;;;;;;0.32;0.32;;;;;;;24.99;100.00;101658.19;10426383;28;20045;-80
2023/08/18 04:20:10;;;;;;;2.72;0.65;;;;;;;24.67;100.00;101665.03;10442468;28;20073;-80
2023/08/18 04:25:12;;;;;;;0.70;0.38;;;;;;;23.95;100.00;101662.00;10442138;28;20128;-80
2023/08/18 04:30:15;;;;;;;0.40;0.40;;;;;;;24.06;100.00;101659.16;10442005;28;20041;-80
2023/08/18 04:35:17;;;;;;;0.88;0.80;;;;;;;23.48;100.00;101653.16;10441799;28;20044;-80
2023/08/18 04:40:19;;;;;;;1.20;1.00;;;;;;;24.37;100.00;101648.94;10441699;28;20076;-80
2023/08/18 04:45:25;;;;;;;7.35;0.38;;;;;;;24.27;100.00;101650.00;10425700;28;20488;-80
2023/08/18 04:50:28;;;;;;;0.80;0.47;;;;;;;23.75;100.00;101643.94;10441737;28;20499;-81
2023/08/18 04:55:33;;;;;;;1.00;0.70;;;;;;;24.17;100.00;101640.53;10424456;28;20045;-80
2023/08/18 05:00:35;;;;;;;0.70;0.70;;;;;;;23.73;100.00;101643.94;10440760;28;20118;-80
2023/08/18 05:06:02;;;;;;;0.88;0.88;;;;;;;23.66;100.00;101644.94;10423870;28;20048;-80
2023/08/18 05:11:06;;;;;;;0.52;0.20;;;;;;;23.86;100.00;101651.63;10424315;28;20053;-80
2023/08/18 05:16:07;;;;;;;3.13;0.68;;;;;;;24.42;100.00;101634.78;10440169;28;20048;-80
2023/08/18 05:21:09;;;;;;;0.43;0.43;;;;;;;24.05;100.00;101637.25;10423751;28;20091;-80
2023/08/18 05:26:11;;;;;;;0.77;0.65;;;;;;;24.05;100.00;101639.88;10439722;28;20369;-81
2023/08/18 05:31:14;;;;;;;0.82;0.77;;;;;;;25.83;100.00;101645.63;10439439;28;20052;-81
2023/08/18 05:36:17;;;;;;;0.77;0.50;;;;;;;24.83;100.00;101641.00;10472729;28;20459;-80
2023/08/18 05:41:18;;;;;;;1.20;1.10;;;;;;;24.89;100.00;101640.84;10438859;28;20048;-80
2023/08/18 05:46:20;;;;;;;0.68;0.40;;;;;;;25.23;100.00;101639.22;10457280;28;20072;-81
2023/08/18 05:51:22;;;;;;;0.32;0.32;;;;;;;25.44;100.00;101637.81;10439498;28;20040;-81
2023/08/18 05:56:23;;;;;;;1.15;0.73;;;;;;;25.35;100.00;101625.72;10422460;28;20041;-80
2023/08/18 06:01:25;;;;;;;3.08;0.55;;;;;;;25.38;100.00;101617.75;10438406;28;20496;-81
2023/08/18 06:06:27;;;;;;;0.30;0.30;;;;;;;24.89;100.00;101603.06;10421998;28;20048;-81
2023/08/18 06:11:28;;;;;;;2.85;1.33;;;;;;;24.82;100.00;101602.38;10454880;28;20056;-80
2023/08/18 06:16:30;;;;;;;0.38;0.30;;;;;;;25.45;100.00;101608.78;10427508;28;20408;-81
2023/08/18 06:21:32;;;;;;;0.52;0.52;;;;;;;24.73;100.00;101615.75;10430228;28;20087;-81
2023/08/18 06:26:33;;;;;;;0.45;0.38;;;;;;;24.24;100.00;101626.34;10446725;28;20044;-81
2023/08/18 06:31:35;;;;;;;0.50;0.50;;;;;;;24.76;100.00;101631.50;10446361;28;20045;-81
2023/08/18 06:36:37;;;;;;;0.77;0.70;;;;;;;24.92;100.00;101619.69;10430002;28;20044;-82
2023/08/18 06:41:39;;;;;;;0.52;0.52;;;;;;;24.40;100.00;101626.94;10445938;28;20075;-81
2023/08/18 06:46:41;;;;;;;1.23;0.75;;;;;;;25.62;100.00;101621.53;10445849;28;20131;-82
2023/08/18 06:51:43;;;;;;;0.47;0.43;;;;;;;24.44;100.00;101627.75;10429923;28;20057;-82
2023/08/18 06:56:45;;;;;;;1.13;0.50;;;;;;;25.96;100.00;101641.75;10445336;28;20045;-81
2023/08/18 07:01:46;;;;;;;0.55;0.38;;;;;;;25.89;100.00;101634.91;10428802;28;20048;-82
2023/08/18 07:06:48;;;;;;;0.70;0.40;;;;;;;25.92;100.00;101629.56;10429057;28;20549;-81
2023/08/18 07:11:50;;;;;;;0.43;0.35;;;;;;;25.76;100.00;101622.94;10444574;28;20045;-81
2023/08/18 07:16:52;;;;;;;0.50;0.50;;;;;;;25.45;100.00;101626.38;10444758;28;20047;-81
2023/08/18 07:21:53;;;;;;;0.85;0.40;;;;;;;26.52;100.00;101624.38;10462234;28;20049;-81
2023/08/18 07:26:55;;;;;;;0.55;0.50;;;;;;;26.45;100.00;101628.13;10444381;28;20056;-82
2023/08/18 07:31:57;;;;;;;1.13;0.63;;;;;;;25.71;100.00;101614.31;10444356;28;20064;-80
2023/08/18 07:36:58;;;;;;;0.82;0.82;;;;;;;25.76;100.00;101617.69;10443735;28;20048;-83
2023/08/18 07:42:00;;;;;;;0.90;0.50;;;;;;;26.12;100.00;101605.28;10426845;28;20063;-81
2023/08/18 07:47:03;;;;;;;1.38;1.17;;;;;;;26.02;100.00;101609.03;10426456;28;20407;-81
2023/08/18 07:52:04;;;;;;;0.75;0.65;;;;;;;26.03;100.00;101615.19;10443519;28;20087;-82
2023/08/18 07:57:06;;;;;;;0.75;0.65;;;;;;;25.35;100.00;101626.56;10443359;28;20043;-82
2023/08/18 08:02:08;;;;;;;1.45;0.75;;;;;;;25.69;100.00;101631.94;10426681;28;20052;-80
2023/08/18 08:07:32;;;;;;;1.27;0.98;;;;;;;26.15;100.00;101636.00;10429177;28;20535;-82
2023/08/18 08:12:36;;;;;;;0.10;0.10;;;;;;;26.03;100.00;101636.31;10442981;28;20044;-81
2023/08/18 08:17:39;;;;;;;1.05;0.68;;;;;;;25.75;100.00;101637.94;10442387;28;20055;-82
2023/08/18 08:22:42;;;;;;;0.40;0.40;;;;;;;26.32;100.00;101642.59;10442274;28;20048;-82
2023/08/18 08:27:44;;;;;;;0.43;0.30;;;;;;;26.65;100.00;101645.16;10441754;28;20080;-82
2023/08/18 08:32:46;;;;;;;2.40;0.70;;;;;;;26.53;100.00;101636.69;10459071;28;20067;-84
2023/08/18 08:37:47;;;;;;;0.38;0.32;;;;;;;26.32;100.00;101646.09;10440208;28;20091;-80
2023/08/18 08:42:53;;;;;;;0.95;0.60;;;;;;;26.33;100.00;101641.66;10424400;28;20519;-82
2023/08/18 08:47:58;;;;;;;1.48;0.80;;;;;;;26.66;100.00;101646.88;10440402;28;20041;-81
2023/08/18 08:53:01;;;;;;;0.25;0.25;;;;;;;26.16;100.00;101647.44;10412306;28;20095;-82
2023/08/18 08:58:04;;;;;;;0.63;0.60;;;;;;;25.68;100.00;101640.75;10424141;28;20041;-81
2023/08/18 09:03:06;;;;;;;1.27;0.60;;;;;;;25.82;100.00;101633.34;10440474;28;20048;-80
2023/08/18 09:08:09;;;;;;;0.32;0.17;;;;;;;26.35;100.00;101638.09;10442626;28;20047;-80
2023/08/18 09:13:12;;;;;;;0.90;0.70;;;;;;;26.77;100.00;101634.22;10413890;28;20527;-82
2023/08/18 09:18:14;;;;;;;0.55;0.38;;;;;;;26.97;100.00;101624.84;10439679;28;20470;-81
2023/08/18 09:23:18;;;;;;;1.17;0.75;;;;;;;27.08;100.00;101633.28;10423356;28;20562;-81
2023/08/18 09:28:26;;;;;;;0.98;0.47;;;;;;;27.95;100.00;101631.25;10439673;28;20103;-81
2023/08/18 09:33:30;;;;;;;1.63;0.80;;;;;;;27.78;100.00;101626.56;10431578;28;20049;-81
2023/08/18 09:38:42;;;;;;;0.77;0.47;;;;;;;27.51;100.00;101618.69;10440378;28;20041;-81
2023/08/18 09:43:44;;;;;;;1.33;0.47;;;;;;;28.16;100.00;101619.06;10439263;28;20045;-81
2023/08/18 09:48:48;;;;;;;0.75;0.35;;;;;;;28.44;100.00;101607.41;10422420;28;20056;-81
2023/08/18 09:53:58;;;;;;;0.30;0.20;;;;;;;26.66;100.00;101604.59;10439044;28;20037;-81
2023/08/18 09:59:20;;;;;;;0.85;0.50;;;;;;;27.20;100.00;101611.75;10438687;28;20051;-81
2023/08/18 10:04:24;;;;;;;0.60;0.43;;;;;;;27.84;100.00;101623.72;10438880;28;20132;-81
2023/08/18 10:09:28;;;;;;;0.80;0.47;;;;;;;28.65;100.00;101619.00;10415016;28;20041;-81
2023/08/18 10:14:31;;;;;;;0.38;0.30;;;;;;;26.85;100.00;101626.94;10414390;28;20626;-81
2023/08/18 10:19:54;;;;;;;1.15;0.70;;;;;;;26.97;100.00;101622.19;10397389;28;20080;-81
2023/08/18 10:24:56;;;;;;;0.60;0.52;;;;;;;28.22;100.00;101628.59;10430086;28;20056;-82
2023/08/18 10:30:15;;;;;;;2.05;0.63;;;;;;;28.41;100.00;101617.28;10434657;28;20041;-81
2023/08/18 10:35:22;;;;;;;0.30;0.30;;;;;;;28.60;100.00;101614.78;10438320;28;20051;-83
2023/08/18 10:40:33;;;;;;;0.68;0.68;;;;;;;28.17;100.00;101614.63;10438378;28;20477;-83
2023/08/18 10:45:35;;;;;;;1.10;0.60;;;;;;;28.21;100.00;101599.47;10454753;28;20407;-82
2023/08/18 10:50:41;;;;;;;1.08;0.75;;;;;;;30.71;100.00;101593.41;10455694;28;20071;-83
2023/08/18 10:55:44;;;;;;;1.85;0.65;;;;;;;29.49;100.00;101590.91;10455607;28;20056;-81
2023/08/18 11:00:46;;;;;;;1.05;0.98;;;;;;;30.02;100.00;101592.13;10457640;28;20052;-82
2023/08/18 11:05:47;;;;;;;0.35;0.35;;;;;;;30.60;100.00;101591.25;10445618;28;20411;-83
2023/08/18 11:10:49;;;;;;;1.65;0.40;;;;;;;31.96;100.00;101594.22;10463213;28;20399;-83
2023/08/18 11:15:51;;;;;;;1.15;0.60;;;;;;;31.94;100.00;101588.13;10445173;28;20056;-83
2023/08/18 11:20:53;;;;;;;0.63;0.63;;;;;;;32.61;100.00;101571.16;10445018;28;20076;-84
2023/08/18 11:25:55;;;;;;;0.77;0.60;;;;;;;32.26;100.00;101564.19;10462530;28;20041;-83
2023/08/18 11:30:57;;;;;;;0.40;0.30;;;;;;;32.81;100.00;101546.88;10462336;28;20053;-82
2023/08/18 11:35:59;;;;;;;0.30;0.30;;;;;;;31.78;100.00;101541.00;10444185;28;20587;-84
2023/08/18 11:41:00;;;;;;;0.57;0.55;;;;;;;31.57;100.00;101542.13;10462301;28;20045;-83
2023/08/18 11:46:02;;;;;;;0.75;0.32;;;;;;;32.63;100.00;101531.94;10443813;28;20107;-84
2023/08/18 11:51:04;;;;;;;0.52;0.40;;;;;;;32.64;100.00;101531.00;10427709;28;20394;-83
2023/08/18 11:56:05;;;;;;;3.00;0.90;;;;;;;33.61;100.00;101521.72;10443715;28;20503;-84
2023/08/18 12:01:08;;;;;;;0.88;0.77;;;;;;;33.08;100.00;101522.22;10444293;28;20045;-83
2023/08/18 12:06:09;;;;;;;0.35;0.35;;;;;;;31.27;100.00;101517.03;10444463;28;20407;-83
2023/08/18 12:11:11;;;;;;;1.30;0.77;;;;;;;33.05;100.00;101519.72;10425458;28;20136;-82
2023/08/18 12:16:13;;;;;;;2.80;1.33;;;;;;;33.20;100.00;101513.44;10460311;28;20434;-83
2023/08/18 12:21:14;;;;;;;0.88;0.63;;;;;;;32.32;100.00;101504.34;10460300;28;20067;-83
2023/08/18 12:26:17;;;;;;;0.68;0.25;;;;;;;33.06;100.00;101500.06;10460236;28;20492;-83
2023/08/18 12:31:22;;;;;;;0.45;0.20;;;;;;;34.15;100.00;101502.31;10460026;28;20132;-83
2023/08/18 12:36:23;;;;;;;0.28;0.28;;;;;;;32.95;100.00;101499.88;10458380;28;20144;-83
2023/08/18 12:41:27;;;;;;;0.15;0.15;;;;;;;33.37;100.00;101493.75;10475688;28;20049;-82
2023/08/18 12:46:29;;;;;;;0.57;0.47;;;;;;;32.81;100.00;101474.84;10400839;28;20038;-83
2023/08/18 12:51:30;;;;;;;0.43;0.38;;;;;;;34.34;100.00;101472.53;10418030;28;20081;-83
2023/08/18 12:56:32;;;;;;;1.52;0.93;;;;;;;33.29;100.00;101479.13;10400062;28;20047;-82
2023/08/18 13:01:34;;;;;;;0.10;0.10;;;;;;;34.39;100.00;101467.75;10400014;28;20143;-83
2023/08/18 13:06:38;;;;;;;0.43;0.38;;;;;;;34.54;100.00;101471.25;10415868;28;20042;-83
2023/08/18 13:11:40;;;;;;;0.47;0.32;;;;;;;34.54;100.00;101467.69;10399893;28;20400;-83
2023/08/18 13:16:41;;;;;;;0.00;0.00;;;;;;;34.86;100.00;101462.00;10416998;28;20034;-84
2023/08/18 13:21:47;;;;;;;0.10;0.10;;;;;;;34.28;100.00;101467.59;10423751;28;20486;-82
2023/08/18 13:27:14;;;;;;;0.52;0.22;;;;;;;34.23;100.00;101464.34;10440458;28;20037;-82
2023/08/18 13:32:15;;;;;;;0.40;0.40;;;;;;;33.52;100.00;101465.25;10457669;28;20079;-82
2023/08/18 13:37:17;;;;;;;0.22;0.20;;;;;;;35.10;100.00;101454.09;10439658;28;20443;-84
2023/08/18 13:42:20;;;;;;;0.55;0.40;;;;;;;35.18;100.00;101450.91;10423205;28;20059;-85
2023/08/18 13:47:22;;;;;;;0.90;0.55;;;;;;;34.90;100.00;101448.31;10439705;28;20052;-84
2023/08/18 13:52:24;;;;;;;0.73;0.50;;;;;;;33.42;100.00;101445.41;10422993;28;20048;-82
2023/08/18 13:57:25;;;;;;;0.08;0.08;;;;;;;34.44;100.00;101441.56;10439054;28;20049;-84
2023/08/18 14:02:27;;;;;;;0.70;0.70;;;;;;;34.83;100.00;101446.13;10438918;28;20049;-84
2023/08/18 14:07:29;;;;;;;0.22;0.20;;;;;;;35.48;100.00;101436.31;10439086;28;20456;-84
2023/08/18 14:12:30;;;;;;;0.22;0.15;;;;;;;35.26;100.00;101437.84;10438821;28;20053;-85
2023/08/18 14:17:44;;;;;;;0.17;0.10;;;;;;;35.45;100.00;101434.69;10456427;28;20039;-84
2023/08/18 14:22:49;;;;;;;0.55;0.40;;;;;;;35.71;100.00;101437.34;10438476;28;20055;-84
2023/08/18 14:28:16;;;;;;;0.35;0.25;;;;;;;34.28;100.00;101435.50;10438317;28;20045;-82
2023/08/18 14:33:17;;;;;;;1.85;0.50;;;;;;;33.61;100.00;101425.56;10437926;28;20049;-83
2023/08/18 14:38:36;;;;;;;0.38;0.38;;;;;;;35.87;100.00;101420.97;10448370;28;20037;-84
2023/08/18 14:43:39;;;;;;;0.40;0.35;;;;;;;34.52;100.00;101416.09;10446396;28;20079;-84
2023/08/18 14:48:41;;;;;;;0.10;0.10;;;;;;;35.97;100.00;101411.31;10463106;28;20049;-84
2023/08/18 14:53:42;;;;;;;0.65;0.52;;;;;;;36.11;100.00;101414.78;10446723;28;20052;-84
2023/08/18 14:58:44;;;;;;;0.35;0.28;;;;;;;36.04;100.00;101411.72;10463546;28;20462;-84
2023/08/18 15:03:46;;;;;;;0.75;0.40;;;;;;;36.25;100.00;101413.75;10445499;28;20416;-85
2023/08/18 15:08:48;;;;;;;0.90;0.57;;;;;;;36.36;100.00;101411.09;10429071;28;20049;-84
2023/08/18 15:13:50;;;;;;;0.17;0.17;;;;;;;37.25;100.00;101407.88;10428898;28;20060;-84
2023/08/18 15:18:51;;;;;;;0.57;0.45;;;;;;;36.58;100.00;101410.38;10462890;28;20045;-84
2023/08/18 15:23:54;;;;;;;0.35;0.20;;;;;;;35.49;100.00;101405.88;10445612;28;20052;-85
2023/08/18 15:28:56;;;;;;;0.30;0.30;;;;;;;35.07;100.00;101396.28;10444985;28;20120;-85
2023/08/18 15:34:02;;;;;;;0.17;0.13;;;;;;;35.40;100.00;101388.66;10444813;28;20045;-85
2023/08/18 15:39:04;;;;;;;0.10;0.10;;;;;;;36.97;100.00;101394.81;10462223;28;20064;-84
2023/08/18 15:44:07;;;;;;;0.43;0.30;;;;;;;36.57;100.00;101386.31;10478266;28;20044;-84
2023/08/18 15:49:09;;;;;;;0.20;0.20;;;;;;;36.65;100.00;101378.50;10443838;28;20424;-84
2023/08/18 15:54:10;;;;;;;0.30;0.30;;;;;;;36.02;100.00;101376.97;10443774;28;20083;-84
2023/08/18 15:59:12;;;;;;;0.10;0.10;;;;;;;36.49;100.00;101362.75;10443504;28;20049;-84
2023/08/18 16:04:14;;;;;;;0.20;0.20;;;;;;;35.93;100.00;101350.84;10443343;28;20049;-84
2023/08/18 16:09:15;;;;;;;0.10;0.10;;;;;;;36.35;100.00;101351.25;10426694;28;20037;-84
2023/08/18 16:14:19;;;;;;;0.47;0.25;;;;;;;36.07;100.00;101351.66;10443265;28;20055;-84
2023/08/18 16:19:28;;;;;;;0.30;0.30;;;;;;;36.32;100.00;101343.41;10444301;28;20033;-84
2023/08/18 16:24:30;;;;;;;0.40;0.28;;;;;;;36.11;100.00;101343.25;10460346;28;20507;-84
2023/08/18 16:29:32;;;;;;;0.30;0.30;;;;;;;36.98;100.00;101342.81;10460223;28;20041;-82
2023/08/18 16:34:34;;;;;;;0.88;0.30;;;;;;;36.26;100.00;101351.94;10442397;28;20128;-82
2023/08/18 16:39:35;;;;;;;0.13;0.13;;;;;;;36.86;100.00;101354.50;10442042;28;20040;-82
2023/08/18 16:44:37;;;;;;;0.05;0.05;;;;;;;36.99;100.00;101355.25;10459632;28;20053;-82
2023/08/18 16:49:39;;;;;;;0.10;0.10;;;;;;;36.98;100.00;101360.78;10442071;28;20041;-82
2023/08/18 16:54:40;;;;;;;0.85;0.30;;;;;;;35.93;100.00;101353.53;10441237;28;20051;-81
2023/08/18 16:59:42;;;;;;;0.28;0.20;;;;;;;35.57;100.00;101349.91;10440182;28;20515;-81
2023/08/18 17:04:44;;;;;;;0.10;0.10;;;;;;;36.36;100.00;101341.34;10440908;28;20041;-82
2023/08/18 17:09:45;;;;;;;1.23;0.40;;;;;;;36.44;100.00;101351.53;10458426;28;20070;-82
2023/08/18 17:14:47;;;;;;;0.10;0.10;;;;;;;36.59;100.00;101336.94;10440323;28;20044;-82
2023/08/18 17:19:49;;;;;;;0.30;0.30;;;;;;;36.79;100.00;101347.91;10456817;28;20397;-82
2023/08/18 17:24:51;;;;;;;0.45;0.28;;;;;;;35.59;100.00;101342.63;10440231;28;20041;-81
2023/08/18 17:29:52;;;;;;;0.00;0.00;;;;;;;36.15;100.00;101342.03;10457932;28;20041;-82
2023/08/18 17:34:55;;;;;;;0.30;0.30;;;;;;;36.59;100.00;101334.25;10458013;28;20059;-81
2023/08/18 17:39:56;;;;;;;1.00;0.22;;;;;;;36.78;100.00;101335.47;10439791;28;20127;-81
2023/08/18 17:44:58;;;;;;;1.00;0.52;;;;;;;37.25;100.00;101338.03;10439609;28;20056;-84
2023/08/18 17:50:00;;;;;;;0.00;0.00;;;;;;;35.90;100.00;101329.63;10439535;28;20399;-81
2023/08/18 17:55:01;;;;;;;0.08;0.03;;;;;;;35.08;100.00;101328.38;10456079;28;20091;-82
2023/08/18 18:00:03;;;;;;;0.10;0.03;;;;;;;34.74;100.00;101330.72;10438856;28;20048;-82
2023/08/18 18:05:08;;;;;;;0.10;0.10;;;;;;;35.33;100.00;101320.38;10438849;28;20472;-81
2023/08/18 18:10:10;;;;;;;0.00;0.00;;;;;;;34.46;100.00;101327.31;10438294;28;20118;-81
2023/08/18 18:15:11;;;;;;;0.00;0.00;;;;;;;35.44;100.00;101308.91;10438158;28;20084;-81
2023/08/18 18:20:15;;;;;;;0.10;0.10;;;;;;;35.90;100.00;101321.59;10455787;28;20467;-81
2023/08/18 18:25:17;;;;;;;0.20;0.20;;;;;;;35.72;100.00;101327.31;10438722;28;20051;-81
2023/08/18 18:30:19;;;;;;;0.00;0.00;;;;;;;35.78;100.00;101330.53;10437597;28;20076;-79
2023/08/18 18:35:21;;;;;;;0.60;0.40;;;;;;;35.13;100.00;101329.84;10437137;28;20092;-81
2023/08/18 18:40:23;;;;;;;0.30;0.15;;;;;;;35.01;100.00;101316.41;10470565;28;20049;-80
2023/08/18 18:45:25;;;;;;;0.00;0.00;;;;;;;35.31;100.00;101301.75;10453890;28;20053;-79
2023/08/18 18:50:26;;;;;;;0.08;0.08;;;;;;;34.99;100.00;101302.25;10455835;28;20037;-80
2023/08/18 18:55:28;;;;;;;0.10;0.10;;;;;;;34.44;100.00;101302.47;10437835;28;20415;-82
2023/08/18 19:00:30;;;;;;;0.05;0.05;;;;;;;34.77;100.00;101303.75;10455499;28;20037;-80
2023/08/18 19:05:39;;;;;;;0.20;0.20;;;;;;;34.67;100.00;101302.69;10437957;28;20123;-82
2023/08/18 19:10:40;;;;;;;0.55;0.28;;;;;;;33.98;100.00;101289.56;10437751;28;20059;-82
2023/08/18 19:15:42;;;;;;;0.73;0.38;;;;;;;34.32;100.00;101304.19;10437406;28;20049;-81
2023/08/18 19:20:43;;;;;;;0.00;0.00;;;;;;;35.06;100.00;101308.88;10437977;28;20220;-82
2023/08/18 19:25:45;;;;;;;0.10;0.10;;;;;;;33.99;100.00;101310.00;10444907;28;20049;-82
2023/08/18 19:30:47;;;;;;;0.00;0.00;;;;;;;33.71;100.00;101308.28;10462143;28;20033;-82
2023/08/18 19:35:50;;;;;;;0.20;0.20;;;;;;;33.61;100.00;101300.00;10462353;28;20051;-82
2023/08/18 19:40:53;;;;;;;0.13;0.05;;;;;;;33.82;100.00;101305.72;10444317;28;20041;-82
2023/08/18 19:45:59;;;;;;;1.67;0.85;;;;;;;32.57;100.00;101298.44;10427522;28;20056;-82
2023/08/18 19:51:00;;;;;;;0.00;0.00;;;;;;;33.19;100.00;101300.81;10443817;28;20359;-82
2023/08/18 19:56:03;;;;;;;0.30;0.20;;;;;;;33.41;100.00;101318.16;10443524;28;20049;-82
2023/08/18 20:01:05;;;;;;;0.68;0.38;;;;;;;32.94;100.00;101319.38;10461030;28;20037;-81
2023/08/18 20:06:08;;;;;;;0.22;0.22;;;;;;;32.99;100.00;101322.59;10460648;28;20045;-82
2023/08/18 20:11:10;;;;;;;0.77;0.25;;;;;;;32.27;100.00;101313.56;10443114;28;20087;-81
2023/08/18 20:16:12;;;;;;;0.00;0.00;;;;;;;32.09;100.00;101311.94;10459341;28;20124;-82
2023/08/18 20:21:13;;;;;;;0.40;0.25;;;;;;;32.25;100.00;101310.09;10442400;28;20439;-81
2023/08/18 20:26:15;;;;;;;0.00;0.00;;;;;;;31.85;100.00;101298.25;10442578;28;20041;-82
2023/08/18 20:31:17;;;;;;;0.63;0.40;;;;;;;32.09;100.00;101306.59;10442246;28;20041;-81
2023/08/18 20:36:18;;;;;;;0.45;0.30;;;;;;;31.73;100.00;101305.13;10441569;28;20388;-81
2023/08/18 20:41:20;;;;;;;0.10;0.10;;;;;;;32.05;100.00;101305.06;10441953;28;20482;-82
2023/08/18 20:46:23;;;;;;;0.28;0.13;;;;;;;32.15;100.00;101300.91;10441300;28;20408;-81
2023/08/18 20:51:24;;;;;;;1.10;0.10;;;;;;;32.53;100.00;101311.09;10441144;28;20049;-82
2023/08/18 20:56:26;;;;;;;0.55;0.47;;;;;;;31.86;100.00;101300.81;10424486;28;20098;-81
2023/08/18 21:01:29;;;;;;;0.10;0.10;;;;;;;31.53;100.00;101293.78;10440669;28;20041;-81
2023/08/18 21:06:31;;;;;;;0.10;0.10;;;;;;;31.82;100.00;101296.63;10440514;28;20481;-81
2023/08/18 21:11:33;;;;;;;0.35;0.20;;;;;;;31.84;100.00;101286.72;10440265;28;20047;-81
2023/08/18 21:16:34;;;;;;;0.20;0.20;;;;;;;31.51;100.00;101289.47;10440181;28;20072;-81
2023/08/18 21:21:36;;;;;;;0.10;0.10;;;;;;;31.44;100.00;101275.66;10439760;28;20483;-81
2023/08/18 21:26:38;;;;;;;0.50;0.40;;;;;;;31.93;100.00;101280.84;10439500;28;20053;-81
2023/08/18 21:31:40;;;;;;;0.47;0.40;;;;;;;31.60;100.00;101278.31;10439301;28;20480;-81
2023/08/18 21:36:41;;;;;;;0.80;0.38;;;;;;;32.18;100.00;101278.53;10439331;28;20072;-81
2023/08/18 21:41:43;;;;;;;0.30;0.30;;;;;;;31.16;100.00;101283.38;10438814;28;20527;-81
2023/08/18 21:46:45;;;;;;;0.15;0.15;;;;;;;30.95;100.00;101276.56;10422792;28;20044;-81
2023/08/18 21:51:46;;;;;;;0.17;0.15;;;;;;;31.72;100.00;101271.44;10438883;28;20029;-81
2023/08/18 21:56:48;;;;;;;0.28;0.28;;;;;;;32.06;100.00;101269.47;10456356;28;20055;-81
2023/08/18 22:01:49;;;;;;;0.10;0.00;;;;;;;31.60;100.00;101260.53;10454929;28;20052;-81
2023/08/18 22:06:51;;;;;;;0.77;0.68;;;;;;;31.60;100.00;101257.00;10438242;28;20063;-80
2023/08/18 22:11:54;;;;;;;0.20;0.20;;;;;;;31.71;100.00;101257.28;10431910;28;20473;-81
2023/08/18 22:16:55;;;;;;;0.52;0.30;;;;;;;31.10;100.00;101258.91;10447010;28;20052;-81
2023/08/18 22:21:57;;;;;;;0.88;0.52;;;;;;;31.94;100.00;101258.59;10438039;28;20123;-81
2023/08/18 22:26:59;;;;;;;0.40;0.40;;;;;;;31.87;100.00;101259.06;10437898;28;20047;-81
2023/08/18 22:32:01;;;;;;;0.38;0.25;;;;;;;31.72;100.00;101253.69;10438442;28;20492;-81
2023/08/18 22:37:02;;;;;;;0.10;0.10;;;;;;;30.85;100.00;101244.28;10437805;28;20049;-81
2023/08/18 22:42:05;;;;;;;0.68;0.50;;;;;;;31.24;100.00;101235.03;10437689;28;20431;-81
2023/08/18 22:47:15;;;;;;;0.10;0.10;;;;;;;31.06;100.00;101236.06;10437421;28;20049;-81
2023/08/18 22:52:17;;;;;;;0.10;0.10;;;;;;;31.09;100.00;101230.59;10420951;28;20133;-81
2023/08/18 22:57:18;;;;;;;0.55;0.45;;;;;;;31.32;100.00;101222.16;10424025;28;20041;-81